createdAt,value
2023-05-10T00:01:36.426Z,10.33
2023-05-10T00:04:23.513Z,10.30
2023-05-10T00:07:11.302Z,10.32
2023-05-10T00:09:58.148Z,10.34
2023-05-10T00:12:45.078Z,10.35
2023-05-10T00:15:31.931Z,10.32
2023-05-10T00:18:18.874Z,10.20
2023-05-10T00:21:06.092Z,10.23
2023-05-10T00:23:52.951Z,10.16
2023-05-10T00:26:39.797Z,10.15
2023-05-10T00:29:26.829Z,10.19
2023-05-10T00:32:14.950Z,10.17
2023-05-10T00:35:01.974Z,10.07
2023-05-10T00:37:49.073Z,9.96
2023-05-10T00:40:37.213Z,10.00
2023-05-10T00:43:24.071Z,9.96
2023-05-10T00:46:11.989Z,9.93
2023-05-10T00:48:59.156Z,9.93
2023-05-10T00:51:46.139Z,9.93
2023-05-10T00:54:33.278Z,9.96
2023-05-10T00:57:20.533Z,9.93
2023-05-10T01:00:08.812Z,9.83
2023-05-10T01:02:55.941Z,9.89
2023-05-10T01:05:42.844Z,9.88
2023-05-10T01:08:29.963Z,9.86
2023-05-10T01:11:16.881Z,9.83
2023-05-10T01:14:04.549Z,9.87
2023-05-10T01:16:51.661Z,9.73
2023-05-10T01:19:39.113Z,9.72
2023-05-10T01:23:06.365Z,9.74
2023-05-10T01:26:15.875Z,9.74
2023-05-10T01:29:11.623Z,9.62
2023-05-10T01:32:21.263Z,9.59
2023-05-10T01:35:17.374Z,9.52
2023-05-10T01:38:30.619Z,9.53
2023-05-10T01:41:49.644Z,9.58
2023-05-10T01:44:59.426Z,9.54
2023-05-10T01:47:54.275Z,9.29
2023-05-10T01:50:44.638Z,9.29
2023-05-10T01:53:35.158Z,9.20
2023-05-10T01:56:26.767Z,9.23
2023-05-10T01:59:17.987Z,9.17
2023-05-10T02:02:06.574Z,9.21
2023-05-10T02:04:56.324Z,9.15
2023-05-10T02:07:44.346Z,9.12
2023-05-10T02:10:32.240Z,9.19
2023-05-10T02:13:19.978Z,9.30
2023-05-10T02:16:08.315Z,9.33
2023-05-10T02:18:58.158Z,9.40
2023-05-10T02:21:46.470Z,9.43
2023-05-10T02:24:35.829Z,9.39
2023-05-10T02:27:24.986Z,9.43
2023-05-10T02:30:13.288Z,9.31
2023-05-10T02:33:00.986Z,9.23
2023-05-10T02:35:48.696Z,9.28
2023-05-10T02:38:37.020Z,9.32
2023-05-10T02:41:25.290Z,9.38
2023-05-10T02:44:15.354Z,9.49
2023-05-10T02:47:02.448Z,9.56
2023-05-10T02:49:49.503Z,9.53
2023-05-10T02:52:49.127Z,9.57
2023-05-10T02:55:41.494Z,9.62
2023-05-10T02:58:28.547Z,9.62
2023-05-10T03:01:15.639Z,9.57
2023-05-10T03:04:02.584Z,9.65
2023-05-10T03:06:49.517Z,9.73
2023-05-10T03:09:36.734Z,9.72
2023-05-10T03:14:31.477Z,9.77
2023-05-10T03:17:37.496Z,9.80
2023-05-10T03:20:36.320Z,9.92
2023-05-10T03:23:35.222Z,9.92
2023-05-10T03:26:27.086Z,9.78
2023-05-10T03:29:15.932Z,9.94
2023-05-10T03:32:02.936Z,10.05
2023-05-10T03:34:49.840Z,10.08
2023-05-10T03:37:42.416Z,10.15
2023-05-10T03:40:33.175Z,10.12
2023-05-10T03:43:20.021Z,9.99
2023-05-10T03:46:06.900Z,10.02
2023-05-10T03:48:53.773Z,10.05
2023-05-10T03:51:40.870Z,10.05
2023-05-10T03:54:27.882Z,10.03
2023-05-10T03:57:14.787Z,10.02
2023-05-10T04:00:01.825Z,9.97
2023-05-10T04:02:48.767Z,9.95
2023-05-10T04:05:35.653Z,10.12
2023-05-10T04:08:22.582Z,10.03
2023-05-10T04:11:11.203Z,10.02
2023-05-10T04:13:58.166Z,10.16
2023-05-10T04:16:45.047Z,10.20
2023-05-10T04:19:32.449Z,10.34
2023-05-10T04:22:19.328Z,10.46
2023-05-10T04:25:07.126Z,10.50
2023-05-10T04:27:53.949Z,10.54
2023-05-10T04:30:41.579Z,10.55
2023-05-10T04:33:28.475Z,10.64
2023-05-10T04:36:15.359Z,10.62
2023-05-10T04:39:03.914Z,10.50
2023-05-10T04:41:50.824Z,10.48
2023-05-10T04:44:37.741Z,10.54
2023-05-10T04:47:24.666Z,10.53
2023-05-10T04:50:11.756Z,10.65
2023-05-10T04:52:58.699Z,10.62
2023-05-10T04:55:45.577Z,10.67
2023-05-10T04:58:32.495Z,10.73
2023-05-10T05:01:19.407Z,10.81
2023-05-10T05:04:06.467Z,10.78
2023-05-10T05:06:54.004Z,10.71
2023-05-10T05:09:41.042Z,10.82
2023-05-10T05:12:27.947Z,10.89
2023-05-10T05:15:16.292Z,10.76
2023-05-10T05:18:03.477Z,10.77
2023-05-10T05:20:50.452Z,10.87
2023-05-10T05:23:37.297Z,10.91
2023-05-10T05:26:24.230Z,10.89
2023-05-10T05:29:11.080Z,10.97
2023-05-10T05:31:58.004Z,10.96
2023-05-10T05:34:48.050Z,10.85
2023-05-10T05:37:34.977Z,10.95
2023-05-10T05:40:21.796Z,11.03
2023-05-10T05:43:08.698Z,11.07
2023-05-10T05:45:57.009Z,11.11
2023-05-10T05:48:43.902Z,11.19
2023-05-10T05:51:30.756Z,11.24
2023-05-10T05:54:17.623Z,11.29
2023-05-10T05:57:04.450Z,11.23
2023-05-10T05:59:51.375Z,11.25
2023-05-10T06:02:38.379Z,11.30
2023-05-10T06:05:25.366Z,11.43
2023-05-10T06:08:12.250Z,11.41
2023-05-10T06:10:59.093Z,11.51
2023-05-10T06:13:46.548Z,11.53
2023-05-10T06:16:34.246Z,11.51
2023-05-10T06:19:21.110Z,11.64
2023-05-10T06:22:07.962Z,11.61
2023-05-10T06:24:54.780Z,11.69
2023-05-10T06:27:41.627Z,11.70
2023-05-10T06:30:29.815Z,11.72
2023-05-10T06:33:17.291Z,11.74
2023-05-10T06:36:04.397Z,11.75
2023-05-10T06:38:52.275Z,11.63
2023-05-10T06:41:39.155Z,11.65
2023-05-10T06:44:26.179Z,11.73
2023-05-10T06:47:13.411Z,11.85
2023-05-10T06:50:00.474Z,11.95
2023-05-10T06:52:47.305Z,11.97
2023-05-10T06:55:34.219Z,12.16
2023-05-10T06:58:21.056Z,12.31
2023-05-10T07:01:08.082Z,12.24
2023-05-10T07:03:54.976Z,12.17
2023-05-10T07:06:41.904Z,12.19
2023-05-10T07:09:29.134Z,12.18
2023-05-10T07:12:16.318Z,12.21
2023-05-10T07:15:04.053Z,12.21
2023-05-10T07:17:51.289Z,12.10
2023-05-10T07:20:38.147Z,12.09
2023-05-10T07:23:25.072Z,12.06
2023-05-10T07:26:12.619Z,12.01
2023-05-10T07:28:59.490Z,12.21
2023-05-10T07:31:46.381Z,12.37
2023-05-10T07:34:33.311Z,12.18
2023-05-10T07:37:20.187Z,12.29
2023-05-10T07:40:07.865Z,12.43
2023-05-10T07:42:54.849Z,12.36
2023-05-10T07:45:41.785Z,12.52
2023-05-10T07:48:28.640Z,12.43
2023-05-10T07:51:15.524Z,12.26
2023-05-10T07:54:03.502Z,12.19
2023-05-10T07:56:50.391Z,12.26
2023-05-10T07:59:37.508Z,12.46
2023-05-10T08:02:24.546Z,12.66
2023-05-10T08:05:11.663Z,12.69
2023-05-10T08:07:58.582Z,12.93
2023-05-10T08:10:45.429Z,13.16
2023-05-10T08:13:32.465Z,13.28
2023-05-10T08:16:19.861Z,13.44
2023-05-10T08:19:06.962Z,13.50
2023-05-10T08:21:54.389Z,13.60
2023-05-10T08:24:42.960Z,13.54
2023-05-10T08:27:29.814Z,13.68
2023-05-10T08:30:16.702Z,13.78
2023-05-10T08:33:03.663Z,13.88
2023-05-10T08:35:50.611Z,14.02
2023-05-10T08:38:38.927Z,14.07
2023-05-10T08:41:26.909Z,14.07
2023-05-10T08:44:13.924Z,13.96
2023-05-10T08:47:05.227Z,13.97
2023-05-10T08:49:53.553Z,13.91
2023-05-10T08:52:41.629Z,13.77
2023-05-10T08:55:28.966Z,13.53
2023-05-10T08:58:16.004Z,13.33
2023-05-10T09:01:03.541Z,13.32
2023-05-10T09:03:51.611Z,13.35
2023-05-10T09:06:38.861Z,13.35
2023-05-10T09:09:26.800Z,13.40
2023-05-10T09:12:16.572Z,13.22
2023-05-10T09:15:06.695Z,13.18
2023-05-10T09:17:53.885Z,12.94
2023-05-10T09:20:41.583Z,12.84
2023-05-10T09:23:33.213Z,12.90
2023-05-10T09:26:24.416Z,12.97
2023-05-10T09:29:11.474Z,12.91
2023-05-10T09:31:58.408Z,13.20
2023-05-10T09:34:45.951Z,13.43
2023-05-10T09:37:32.922Z,13.86
2023-05-10T09:40:21.598Z,14.15
2023-05-10T09:43:08.672Z,14.59
2023-05-10T09:45:55.876Z,14.78
2023-05-10T09:48:45.058Z,15.19
2023-05-10T09:51:35.005Z,15.45
2023-05-10T09:54:24.787Z,15.48
2023-05-10T09:57:21.290Z,15.54
2023-05-10T10:00:11.098Z,15.59
2023-05-10T10:02:59.977Z,15.56
2023-05-10T10:05:48.497Z,15.50
2023-05-10T10:08:35.650Z,15.45
2023-05-10T10:11:24.602Z,15.31
2023-05-10T10:14:13.504Z,15.17
2023-05-10T10:19:52.112Z,15.13
2023-05-10T10:22:39.001Z,14.82
2023-05-10T10:25:26.459Z,14.60
2023-05-10T10:28:32.279Z,14.53
2023-05-10T10:31:28.901Z,14.50
2023-05-10T10:34:33.995Z,14.38
2023-05-10T10:37:21.340Z,14.50
2023-05-10T10:40:24.505Z,14.60
2023-05-10T10:43:25.195Z,14.61
2023-05-10T10:46:13.540Z,14.73
2023-05-10T10:49:11.016Z,14.87
2023-05-10T10:52:22.057Z,14.73
2023-05-10T10:55:14.799Z,14.66
2023-05-10T10:58:02.063Z,14.68
2023-05-10T11:00:49.000Z,14.75
2023-05-10T11:03:35.996Z,14.84
2023-05-10T11:06:36.940Z,15.00
2023-05-10T11:09:25.879Z,15.09
2023-05-10T11:12:12.900Z,14.93
2023-05-10T11:15:00.029Z,14.87
2023-05-10T11:17:52.871Z,14.88
2023-05-10T11:20:40.918Z,15.00
2023-05-10T11:23:40.924Z,15.04
2023-05-10T11:26:36.838Z,15.19
2023-05-10T11:29:23.876Z,15.19
2023-05-10T11:32:10.939Z,15.20
2023-05-10T11:34:57.765Z,15.13
2023-05-10T11:37:49.212Z,15.03
2023-05-10T11:40:37.098Z,14.96
2023-05-10T11:43:29.144Z,14.83
2023-05-10T11:46:17.258Z,14.68
2023-05-10T11:49:07.935Z,14.64
2023-05-10T11:52:05.069Z,14.72
2023-05-10T11:54:53.323Z,14.90
2023-05-10T11:57:42.224Z,14.91
2023-05-10T12:00:29.765Z,15.09
2023-05-10T12:03:17.189Z,15.37
2023-05-10T12:06:04.747Z,15.30
2023-05-10T12:08:54.515Z,15.51
2023-05-10T12:11:44.255Z,15.55
2023-05-10T12:14:36.119Z,15.47
2023-05-10T12:17:23.123Z,15.35
2023-05-10T12:20:17.042Z,15.62
2023-05-10T12:23:04.848Z,15.55
2023-05-10T12:25:54.927Z,15.62
2023-05-10T12:28:41.865Z,15.56
2023-05-10T12:31:28.729Z,15.59
2023-05-10T12:34:32.608Z,15.62
2023-05-10T12:37:25.363Z,15.55
2023-05-10T12:40:12.403Z,15.50
2023-05-10T12:42:59.350Z,15.58
2023-05-10T12:45:49.181Z,15.55
2023-05-10T12:48:37.787Z,15.46
2023-05-10T12:51:24.689Z,15.42
2023-05-10T12:54:11.545Z,15.35
2023-05-10T12:56:58.423Z,15.43
2023-05-10T12:59:45.384Z,15.41
2023-05-10T13:02:32.314Z,15.41
2023-05-10T13:05:19.198Z,15.34
2023-05-10T13:08:06.221Z,15.32
2023-05-10T13:10:53.329Z,15.36
2023-05-10T13:13:40.396Z,15.40
2023-05-10T13:16:27.846Z,15.52
2023-05-10T13:19:15.252Z,15.52
2023-05-10T13:22:02.303Z,15.55
2023-05-10T13:24:49.217Z,15.54
2023-05-10T13:27:36.249Z,15.56
2023-05-10T13:30:24.785Z,15.54
2023-05-10T13:33:11.677Z,15.50
2023-05-10T13:35:58.561Z,15.41
2023-05-10T13:38:45.386Z,15.41
2023-05-10T13:41:32.268Z,15.37
2023-05-10T13:44:19.161Z,15.42
2023-05-10T13:47:06.497Z,15.48
2023-05-10T13:49:53.391Z,15.50
2023-05-10T13:52:40.478Z,15.47
2023-05-10T13:55:27.434Z,15.41
2023-05-10T13:58:14.386Z,15.40
2023-05-10T14:01:01.208Z,15.33
2023-05-10T14:03:48.179Z,15.32
2023-05-10T14:06:35.129Z,15.24
2023-05-10T14:09:21.970Z,15.28
2023-05-10T14:12:09.108Z,15.19
2023-05-10T14:14:56.006Z,15.30
2023-05-10T14:17:42.939Z,15.21
2023-05-10T14:20:30.031Z,15.22
2023-05-10T14:23:16.940Z,15.24
2023-05-10T14:26:04.052Z,15.21
2023-05-10T14:28:50.980Z,15.17
2023-05-10T14:31:37.972Z,15.17
2023-05-10T14:34:24.852Z,15.19
2023-05-10T14:37:12.793Z,15.27
2023-05-10T14:39:59.761Z,15.35
2023-05-10T14:42:46.666Z,15.29
2023-05-10T14:45:33.803Z,15.20
2023-05-10T14:48:22.265Z,15.09
2023-05-10T14:51:09.112Z,14.96
2023-05-10T14:53:56.054Z,15.06
2023-05-10T14:56:42.941Z,14.96
2023-05-10T14:59:29.877Z,14.97
2023-05-10T15:02:17.288Z,14.89
2023-05-10T15:05:04.980Z,14.87
2023-05-10T15:07:52.431Z,14.92
2023-05-10T15:10:39.988Z,14.91
2023-05-10T15:13:27.192Z,14.93
2023-05-10T15:16:14.082Z,14.91
2023-05-10T15:19:01.109Z,14.88
2023-05-10T15:21:48.363Z,14.85
2023-05-10T15:24:35.267Z,14.86
2023-05-10T15:27:22.192Z,14.79
2023-05-10T15:30:09.577Z,14.78
2023-05-10T15:32:56.879Z,14.76
2023-05-10T15:35:43.792Z,14.73
2023-05-10T15:38:30.657Z,14.70
2023-05-10T15:41:18.012Z,14.73
2023-05-10T15:44:04.982Z,14.75
2023-05-10T15:46:52.016Z,14.78
2023-05-10T15:49:38.909Z,14.67
2023-05-10T15:52:25.866Z,14.61
2023-05-10T15:55:13.436Z,14.58
2023-05-10T15:58:00.267Z,14.60
2023-05-10T16:00:47.194Z,14.63
2023-05-10T16:03:37.291Z,14.55
2023-05-10T16:06:24.468Z,14.54
2023-05-10T16:09:11.287Z,14.52
2023-05-10T16:11:58.244Z,14.51
2023-05-10T16:14:45.200Z,14.55
2023-05-10T16:17:32.363Z,14.59
2023-05-10T16:20:19.329Z,14.52
2023-05-10T16:23:07.451Z,14.57
2023-05-10T16:25:54.772Z,14.51
2023-05-10T16:28:41.642Z,14.48
2023-05-10T16:31:28.580Z,14.38
2023-05-10T16:34:16.409Z,14.32
2023-05-10T16:37:03.331Z,14.29
2023-05-10T16:39:50.356Z,14.31
2023-05-10T16:42:37.257Z,14.34
2023-05-10T16:45:27.391Z,14.29
2023-05-10T16:48:14.297Z,14.26
2023-05-10T16:51:02.798Z,14.28
2023-05-10T16:53:49.800Z,14.26
2023-05-10T16:56:36.791Z,14.27
2023-05-10T16:59:32.660Z,14.31
2023-05-10T17:02:20.989Z,14.29
2023-05-10T17:05:08.650Z,14.27
2023-05-10T17:07:56.081Z,14.16
2023-05-10T17:10:42.918Z,14.09
2023-05-10T17:13:30.443Z,14.07
2023-05-10T17:16:17.605Z,14.12
2023-05-10T17:19:04.717Z,14.15
2023-05-10T17:21:51.840Z,14.11
2023-05-10T17:24:38.722Z,14.11
2023-05-10T17:27:25.608Z,14.06
2023-05-10T17:30:13.710Z,13.91
2023-05-10T17:33:00.953Z,13.84
2023-05-10T17:35:48.086Z,13.81
2023-05-10T17:38:36.508Z,13.84
2023-05-10T17:41:23.391Z,13.88
2023-05-10T17:44:10.251Z,13.90
2023-05-10T17:46:57.112Z,13.94
2023-05-10T17:49:43.963Z,13.88
2023-05-10T17:52:33.372Z,13.89
2023-05-10T17:55:20.558Z,13.92
2023-05-10T17:58:07.638Z,13.94
2023-05-10T18:00:54.976Z,13.94
2023-05-10T18:03:41.930Z,13.88
2023-05-10T18:06:28.900Z,13.92
2023-05-10T18:09:16.217Z,13.89
2023-05-10T18:12:03.688Z,13.85
2023-05-10T18:14:50.864Z,13.85
2023-05-10T18:17:37.871Z,13.82
2023-05-10T18:20:24.769Z,13.83
2023-05-10T18:23:12.167Z,13.81
2023-05-10T18:25:59.160Z,13.75
2023-05-10T18:28:46.004Z,13.73
2023-05-10T18:31:32.906Z,13.72
2023-05-10T18:34:20.034Z,13.72
2023-05-10T18:37:08.188Z,13.71
2023-05-10T18:39:55.163Z,13.71
2023-05-10T18:42:42.200Z,13.69
2023-05-10T18:45:29.581Z,13.68
2023-05-10T18:48:16.968Z,13.65
2023-05-10T18:51:04.265Z,13.63
2023-05-10T18:53:51.147Z,13.65
2023-05-10T18:56:43.727Z,13.58
2023-05-10T18:59:30.726Z,13.60
2023-05-10T19:02:17.711Z,13.66
2023-05-10T19:05:05.237Z,13.64
2023-05-10T19:07:52.112Z,13.54
2023-05-10T19:10:39.200Z,13.54
2023-05-10T19:13:28.344Z,13.58
2023-05-10T19:16:17.082Z,13.50
2023-05-10T19:19:06.475Z,13.37
2023-05-10T19:21:55.848Z,13.28
2023-05-10T19:24:42.927Z,13.31
2023-05-10T19:27:31.783Z,13.29
2023-05-10T19:30:18.639Z,13.23
2023-05-10T19:33:06.069Z,13.26
2023-05-10T19:35:53.452Z,13.27
2023-05-10T19:38:40.418Z,13.31
2023-05-10T19:41:27.291Z,13.19
2023-05-10T19:44:14.449Z,13.23
2023-05-10T19:47:01.589Z,13.19
2023-05-10T19:49:48.592Z,13.16
2023-05-10T19:52:35.484Z,13.17
2023-05-10T19:55:27.910Z,13.22
2023-05-10T19:58:15.042Z,13.12
2023-05-10T20:01:02.597Z,13.09
2023-05-10T20:03:49.598Z,13.06
2023-05-10T20:06:36.647Z,13.05
2023-05-10T20:09:23.475Z,13.04
2023-05-10T20:12:10.492Z,13.01
2023-05-10T20:14:57.516Z,12.96
2023-05-10T20:17:44.857Z,12.96
2023-05-10T20:20:31.809Z,12.94
2023-05-10T20:23:18.675Z,12.96
2023-05-10T20:26:05.756Z,12.97
2023-05-10T20:28:52.629Z,12.96
2023-05-10T20:31:39.500Z,12.95
2023-05-10T20:34:26.527Z,12.89
2023-05-10T20:37:13.440Z,12.84
2023-05-10T20:40:00.352Z,12.84
2023-05-10T20:42:47.694Z,12.83
2023-05-10T20:45:37.556Z,12.82
2023-05-10T20:48:24.712Z,12.81
2023-05-10T20:51:11.588Z,12.78
2023-05-10T20:53:58.435Z,12.73
2023-05-10T20:56:45.352Z,12.75
2023-05-10T20:59:32.219Z,12.73
2023-05-10T21:02:19.158Z,12.69
2023-05-10T21:05:06.628Z,12.66
2023-05-10T21:07:54.294Z,12.66
2023-05-10T21:10:41.224Z,12.65
2023-05-10T21:13:28.332Z,12.66
2023-05-10T21:16:15.277Z,12.66
2023-05-10T21:19:02.415Z,12.66
2023-05-10T21:21:49.403Z,12.66
2023-05-10T21:24:36.762Z,12.63
2023-05-10T21:27:23.619Z,12.65
2023-05-10T21:30:10.794Z,12.61
2023-05-10T21:32:59.991Z,12.66
2023-05-10T21:35:47.060Z,12.64
2023-05-10T21:38:34.189Z,12.60
2023-05-10T21:41:21.847Z,12.62
2023-05-10T21:44:08.720Z,12.62
2023-05-10T21:46:56.028Z,12.61
2023-05-10T21:49:42.923Z,12.60
2023-05-10T21:52:29.787Z,12.52
2023-05-10T21:55:16.897Z,12.55
2023-05-10T21:58:03.771Z,12.56
2023-05-10T22:00:50.670Z,12.59
2023-05-10T22:03:37.812Z,12.51
2023-05-10T22:06:24.701Z,12.52
2023-05-10T22:09:11.678Z,12.49
2023-05-10T22:11:58.887Z,12.47
2023-05-10T22:14:45.998Z,12.46
2023-05-10T22:17:33.438Z,12.49
2023-05-10T22:20:21.570Z,12.44
2023-05-10T22:23:08.406Z,12.40
2023-05-10T22:26:00.054Z,12.34
2023-05-10T22:28:46.992Z,12.37
2023-05-10T22:31:34.004Z,12.42
2023-05-10T22:34:21.032Z,12.38
2023-05-10T22:37:07.959Z,12.31
2023-05-10T22:39:54.805Z,12.27
2023-05-10T22:42:41.763Z,12.29
2023-05-10T22:45:28.620Z,12.24
2023-05-10T22:48:15.930Z,12.23
2023-05-10T22:51:02.820Z,12.21
2023-05-10T22:53:49.718Z,12.16
2023-05-10T22:56:36.640Z,12.17
2023-05-10T22:59:23.748Z,12.23
2023-05-10T23:02:11.206Z,12.25
2023-05-10T23:04:58.259Z,12.22
2023-05-10T23:07:45.256Z,12.21
2023-05-10T23:10:32.368Z,12.18
2023-05-10T23:13:21.018Z,12.12
2023-05-10T23:16:08.199Z,12.22
2023-05-10T23:18:55.558Z,12.21
2023-05-10T23:21:42.544Z,12.21
2023-05-10T23:24:29.452Z,12.22
2023-05-10T23:27:16.309Z,12.08
2023-05-10T23:30:03.346Z,12.06
2023-05-10T23:32:50.299Z,12.06
2023-05-10T23:35:37.152Z,11.97
2023-05-10T23:38:24.673Z,11.92
2023-05-10T23:41:11.490Z,11.96
2023-05-10T23:43:58.364Z,11.91
2023-05-10T23:46:45.215Z,11.92
2023-05-10T23:49:32.113Z,11.77
2023-05-10T23:55:54.414Z,11.69
2023-05-10T23:58:41.277Z,11.55
